sensor_id;sensor_type;location;lat;lon;timestamp;P1;durP1;ratioP1;P2;durP2;ratioP2
17496;SDS011;62150;43.582;1.456;2023-02-08T05:50:21;10.10;;;3.77;;
17496;SDS011;62150;43.582;1.456;2023-02-08T05:52:50;10.53;;;3.90;;
17496;SDS011;62150;43.582;1.456;2023-02-08T05:55:18;12.33;;;4.00;;
17496;SDS011;62150;43.582;1.456;2023-02-08T05:57:45;10.27;;;4.20;;
17496;SDS011;62150;43.582;1.456;2023-02-08T06:00:13;9.80;;;3.93;;
17496;SDS011;62150;43.582;1.456;2023-02-08T06:02:41;9.87;;;4.07;;
17496;SDS011;62150;43.582;1.456;2023-02-08T06:05:09;9.43;;;4.07;;
17496;SDS011;62150;43.582;1.456;2023-02-08T06:07:38;9.60;;;3.83;;
17496;SDS011;62150;43.582;1.456;2023-02-08T06:10:06;10.17;;;4.20;;
17496;SDS011;62150;43.582;1.456;2023-02-08T06:12:33;9.53;;;4.07;;
17496;SDS011;62150;43.582;1.456;2023-02-08T06:15:01;9.40;;;3.70;;
17496;SDS011;62150;43.582;1.456;2023-02-08T06:17:29;10.27;;;3.93;;
17496;SDS011;62150;43.582;1.456;2023-02-08T06:19:56;10.17;;;3.73;;
17496;SDS011;62150;43.582;1.456;2023-02-08T06:22:24;9.67;;;4.10;;
17496;SDS011;62150;43.582;1.456;2023-02-08T06:24:52;9.90;;;4.37;;
17496;SDS011;62150;43.582;1.456;2023-02-08T06:27:20;10.37;;;3.93;;
17496;SDS011;62150;43.582;1.456;2023-02-08T06:29:47;10.93;;;4.20;;
17496;SDS011;62150;43.582;1.456;2023-02-08T06:32:15;9.23;;;3.97;;
17496;SDS011;62150;43.582;1.456;2023-02-08T06:34:42;9.67;;;4.10;;
17496;SDS011;62150;43.582;1.456;2023-02-08T06:37:12;9.87;;;4.23;;
17496;SDS011;62150;43.582;1.456;2023-02-08T06:39:40;9.90;;;4.40;;
17496;SDS011;62150;43.582;1.456;2023-02-08T06:42:08;10.90;;;4.37;;
17496;SDS011;62150;43.582;1.456;2023-02-08T06:44:36;8.77;;;4.03;;
17496;SDS011;62150;43.582;1.456;2023-02-08T06:47:04;11.43;;;4.33;;
17496;SDS011;62150;43.582;1.456;2023-02-08T06:49:31;9.07;;;4.00;;
17496;SDS011;62150;43.582;1.456;2023-02-08T06:51:59;10.57;;;4.40;;
17496;SDS011;62150;43.582;1.456;2023-02-08T06:54:29;10.10;;;4.50;;
17496;SDS011;62150;43.582;1.456;2023-02-08T06:56:57;9.23;;;4.17;;
17496;SDS011;62150;43.582;1.456;2023-02-08T06:59:26;11.30;;;4.23;;
17496;SDS011;62150;43.582;1.456;2023-02-08T07:01:54;10.47;;;4.50;;
17496;SDS011;62150;43.582;1.456;2023-02-08T07:04:21;10.93;;;4.70;;
17496;SDS011;62150;43.582;1.456;2023-02-08T07:06:49;9.93;;;4.20;;
17496;SDS011;62150;43.582;1.456;2023-02-08T07:09:17;10.30;;;4.20;;
17496;SDS011;62150;43.582;1.456;2023-02-08T07:11:44;10.70;;;4.77;;
17496;SDS011;62150;43.582;1.456;2023-02-08T07:14:12;10.00;;;4.90;;
17496;SDS011;62150;43.582;1.456;2023-02-08T07:16:43;10.73;;;4.60;;
17496;SDS011;62150;43.582;1.456;2023-02-08T07:19:10;10.47;;;4.67;;
17496;SDS011;62150;43.582;1.456;2023-02-08T07:21:38;10.37;;;4.70;;
17496;SDS011;62150;43.582;1.456;2023-02-08T07:24:06;10.93;;;4.77;;
17496;SDS011;62150;43.582;1.456;2023-02-08T07:26:33;10.43;;;5.00;;
17496;SDS011;62150;43.582;1.456;2023-02-08T07:29:01;10.57;;;5.00;;
17496;SDS011;62150;43.582;1.456;2023-02-08T07:31:28;10.37;;;4.53;;
17496;SDS011;62150;43.582;1.456;2023-02-08T07:33:58;10.03;;;4.57;;
17496;SDS011;62150;43.582;1.456;2023-02-08T07:36:26;10.83;;;4.60;;
17496;SDS011;62150;43.582;1.456;2023-02-08T07:38:53;10.17;;;4.77;;
17496;SDS011;62150;43.582;1.456;2023-02-08T07:41:21;10.27;;;4.20;;
17496;SDS011;62150;43.582;1.456;2023-02-08T07:43:48;10.97;;;4.63;;
17496;SDS011;62150;43.582;1.456;2023-02-08T07:46:17;10.40;;;4.60;;
17496;SDS011;62150;43.582;1.456;2023-02-08T07:48:45;10.00;;;4.43;;
17496;SDS011;62150;43.582;1.456;2023-02-08T07:51:15;9.63;;;4.30;;
17496;SDS011;62150;43.582;1.456;2023-02-08T07:53:43;9.73;;;4.17;;
17496;SDS011;62150;43.582;1.456;2023-02-08T07:56:11;8.37;;;4.03;;
17496;SDS011;62150;43.582;1.456;2023-02-08T07:58:38;10.33;;;4.40;;
17496;SDS011;62150;43.582;1.456;2023-02-08T08:01:06;9.67;;;4.47;;
17496;SDS011;62150;43.582;1.456;2023-02-08T08:03:34;11.57;;;5.10;;
17496;SDS011;62150;43.582;1.456;2023-02-08T08:06:01;11.67;;;4.77;;
17496;SDS011;62150;43.582;1.456;2023-02-08T08:08:30;10.23;;;4.63;;
17496;SDS011;62150;43.582;1.456;2023-02-08T08:10:58;9.47;;;4.47;;
17496;SDS011;62150;43.582;1.456;2023-02-08T08:13:25;11.87;;;4.73;;
17496;SDS011;62150;43.582;1.456;2023-02-08T08:15:53;10.03;;;4.57;;
17496;SDS011;62150;43.582;1.456;2023-02-08T08:18:20;11.50;;;4.80;;
17496;SDS011;62150;43.582;1.456;2023-02-08T08:20:48;10.00;;;4.43;;
17496;SDS011;62150;43.582;1.456;2023-02-08T08:23:16;9.97;;;4.73;;
17496;SDS011;62150;43.582;1.456;2023-02-08T08:25:46;12.43;;;4.90;;
17496;SDS011;62150;43.582;1.456;2023-02-08T08:28:14;10.10;;;4.57;;
17496;SDS011;62150;43.582;1.456;2023-02-08T08:30:42;10.83;;;5.30;;
17496;SDS011;62150;43.582;1.456;2023-02-08T08:33:09;10.63;;;4.80;;
17496;SDS011;62150;43.582;1.456;2023-02-08T08:35:38;9.63;;;4.50;;
17496;SDS011;62150;43.582;1.456;2023-02-08T08:38:07;10.70;;;4.87;;
17496;SDS011;62150;43.582;1.456;2023-02-08T08:40:35;9.43;;;4.13;;
17496;SDS011;62150;43.582;1.456;2023-02-08T08:43:04;10.80;;;4.70;;
17496;SDS011;62150;43.582;1.456;2023-02-08T08:45:31;12.17;;;4.53;;
17496;SDS011;62150;43.582;1.456;2023-02-08T08:48:00;11.33;;;4.70;;
17496;SDS011;62150;43.582;1.456;2023-02-08T08:50:28;9.27;;;4.03;;
17496;SDS011;62150;43.582;1.456;2023-02-08T08:52:56;10.23;;;4.57;;
17496;SDS011;62150;43.582;1.456;2023-02-08T08:55:23;10.07;;;4.43;;
17496;SDS011;62150;43.582;1.456;2023-02-08T08:57:52;9.27;;;4.07;;
17496;SDS011;62150;43.582;1.456;2023-02-08T09:00:21;9.00;;;4.17;;
17496;SDS011;62150;43.582;1.456;2023-02-08T09:02:49;10.00;;;4.47;;
17496;SDS011;62150;43.582;1.456;2023-02-08T09:05:16;10.13;;;4.23;;
17496;SDS011;62150;43.582;1.456;2023-02-08T09:07:44;10.80;;;4.63;;
17496;SDS011;62150;43.582;1.456;2023-02-08T09:10:11;10.73;;;4.50;;
17496;SDS011;62150;43.582;1.456;2023-02-08T09:12:39;10.27;;;4.63;;
17496;SDS011;62150;43.582;1.456;2023-02-08T09:15:07;10.30;;;4.67;;
17496;SDS011;62150;43.582;1.456;2023-02-08T09:17:37;10.80;;;4.87;;
17496;SDS011;62150;43.582;1.456;2023-02-08T09:20:05;11.47;;;4.50;;
17496;SDS011;62150;43.582;1.456;2023-02-08T09:22:33;11.50;;;4.70;;
17496;SDS011;62150;43.582;1.456;2023-02-08T09:25:00;10.60;;;4.73;;
17496;SDS011;62150;43.582;1.456;2023-02-08T09:27:28;12.50;;;5.37;;
17496;SDS011;62150;43.582;1.456;2023-02-08T09:29:55;10.03;;;4.63;;
17496;SDS011;62150;43.582;1.456;2023-02-08T09:32:23;11.83;;;5.07;;
17496;SDS011;62150;43.582;1.456;2023-02-08T09:34:52;10.33;;;4.73;;
17496;SDS011;62150;43.582;1.456;2023-02-08T09:37:21;11.90;;;4.93;;
17496;SDS011;62150;43.582;1.456;2023-02-08T09:39:50;11.27;;;5.20;;
17496;SDS011;62150;43.582;1.456;2023-02-08T09:42:26;11.53;;;5.20;;
17496;SDS011;62150;43.582;1.456;2023-02-08T09:45:06;11.07;;;5.30;;
17496;SDS011;62150;43.582;1.456;2023-02-08T09:47:53;11.10;;;5.17;;
17496;SDS011;62150;43.582;1.456;2023-02-08T09:50:29;11.60;;;5.10;;
17496;SDS011;62150;43.582;1.456;2023-02-08T09:53:00;10.60;;;4.67;;
17496;SDS011;62150;43.582;1.456;2023-02-08T09:55:33;10.87;;;5.00;;
17496;SDS011;62150;43.582;1.456;2023-02-08T09:58:07;13.37;;;5.53;;
17496;SDS011;62150;43.582;1.456;2023-02-08T10:00:45;12.10;;;5.37;;
17496;SDS011;62150;43.582;1.456;2023-02-08T10:03:20;11.87;;;4.90;;
17496;SDS011;62150;43.582;1.456;2023-02-08T10:05:57;12.83;;;5.60;;
17496;SDS011;62150;43.582;1.456;2023-02-08T10:08:26;12.73;;;5.50;;
17496;SDS011;62150;43.582;1.456;2023-02-08T10:10:55;12.40;;;5.67;;
17496;SDS011;62150;43.582;1.456;2023-02-08T10:13:36;11.83;;;5.63;;
17496;SDS011;62150;43.582;1.456;2023-02-08T10:16:36;12.80;;;5.37;;
17496;SDS011;62150;43.582;1.456;2023-02-08T10:19:21;13.97;;;6.03;;
17496;SDS011;62150;43.582;1.456;2023-02-08T10:22:02;11.87;;;4.97;;
17496;SDS011;62150;43.582;1.456;2023-02-08T10:24:44;11.53;;;5.27;;
17496;SDS011;62150;43.582;1.456;2023-02-08T10:27:24;11.63;;;5.60;;
17496;SDS011;62150;43.582;1.456;2023-02-08T10:33:02;12.30;;;5.80;;
17496;SDS011;62150;43.582;1.456;2023-02-08T10:35:36;12.23;;;5.60;;
17496;SDS011;62150;43.582;1.456;2023-02-08T10:38:25;10.40;;;5.00;;
17496;SDS011;62150;43.582;1.456;2023-02-08T10:40:55;12.00;;;5.67;;
17496;SDS011;62150;43.582;1.456;2023-02-08T10:43:27;12.50;;;5.60;;
17496;SDS011;62150;43.582;1.456;2023-02-08T10:46:04;11.60;;;5.33;;
17496;SDS011;62150;43.582;1.456;2023-02-08T10:48:47;11.53;;;5.10;;
17496;SDS011;62150;43.582;1.456;2023-02-08T10:51:22;12.20;;;5.30;;
17496;SDS011;62150;43.582;1.456;2023-02-08T10:53:51;11.37;;;5.17;;
17496;SDS011;62150;43.582;1.456;2023-02-08T10:56:23;11.57;;;5.10;;
17496;SDS011;62150;43.582;1.456;2023-02-08T10:59:05;10.77;;;4.93;;
17496;SDS011;62150;43.582;1.456;2023-02-08T11:01:38;10.67;;;4.80;;
17496;SDS011;62150;43.582;1.456;2023-02-08T11:04:07;13.40;;;5.57;;
17496;SDS011;62150;43.582;1.456;2023-02-08T11:06:36;12.57;;;5.47;;
17496;SDS011;62150;43.582;1.456;2023-02-08T11:09:05;11.47;;;4.83;;
17496;SDS011;62150;43.582;1.456;2023-02-08T11:11:45;12.83;;;5.43;;
17496;SDS011;62150;43.582;1.456;2023-02-08T11:14:15;12.60;;;5.87;;
17496;SDS011;62150;43.582;1.456;2023-02-08T11:16:47;12.43;;;5.20;;
17496;SDS011;62150;43.582;1.456;2023-02-08T11:19:19;11.73;;;4.97;;
17496;SDS011;62150;43.582;1.456;2023-02-08T11:21:52;10.13;;;4.87;;
17496;SDS011;62150;43.582;1.456;2023-02-08T11:24:34;10.80;;;5.13;;
17496;SDS011;62150;43.582;1.456;2023-02-08T11:27:15;11.87;;;5.60;;
17496;SDS011;62150;43.582;1.456;2023-02-08T11:29:54;11.13;;;5.13;;
17496;SDS011;62150;43.582;1.456;2023-02-08T11:32:45;13.20;;;5.40;;
17496;SDS011;62150;43.582;1.456;2023-02-08T11:35:21;11.23;;;4.60;;
17496;SDS011;62150;43.582;1.456;2023-02-08T11:37:50;10.23;;;4.20;;
17496;SDS011;62150;43.582;1.456;2023-02-08T11:40:23;10.87;;;4.60;;
17496;SDS011;62150;43.582;1.456;2023-02-08T11:42:55;10.67;;;4.37;;
17496;SDS011;62150;43.582;1.456;2023-02-08T11:45:23;10.80;;;4.63;;
17496;SDS011;62150;43.582;1.456;2023-02-08T11:47:54;10.00;;;4.30;;
17496;SDS011;62150;43.582;1.456;2023-02-08T11:50:23;9.50;;;4.17;;
17496;SDS011;62150;43.582;1.456;2023-02-08T11:52:56;8.70;;;3.97;;
17496;SDS011;62150;43.582;1.456;2023-02-08T11:55:28;11.40;;;4.40;;
17496;SDS011;62150;43.582;1.456;2023-02-08T11:57:57;9.27;;;4.20;;
17496;SDS011;62150;43.582;1.456;2023-02-08T12:00:28;9.90;;;3.63;;
17496;SDS011;62150;43.582;1.456;2023-02-08T12:02:58;10.17;;;3.73;;
17496;SDS011;62150;43.582;1.456;2023-02-08T12:05:33;9.47;;;3.50;;
17496;SDS011;62150;43.582;1.456;2023-02-08T12:08:06;10.83;;;3.50;;
17496;SDS011;62150;43.582;1.456;2023-02-08T12:10:51;8.73;;;3.43;;
17496;SDS011;62150;43.582;1.456;2023-02-08T12:13:36;8.23;;;3.30;;
17496;SDS011;62150;43.582;1.456;2023-02-08T12:16:25;6.17;;;3.10;;
17496;SDS011;62150;43.582;1.456;2023-02-08T12:19:19;9.03;;;3.30;;
17496;SDS011;62150;43.582;1.456;2023-02-08T12:22:00;7.80;;;3.40;;
17496;SDS011;62150;43.582;1.456;2023-02-08T12:24:34;8.97;;;3.30;;
17496;SDS011;62150;43.582;1.456;2023-02-08T12:27:16;7.13;;;3.07;;
17496;SDS011;62150;43.582;1.456;2023-02-08T12:30:02;7.50;;;3.30;;
17496;SDS011;62150;43.582;1.456;2023-02-08T12:32:46;7.17;;;3.10;;
17496;SDS011;62150;43.582;1.456;2023-02-08T12:35:40;9.30;;;3.27;;
17496;SDS011;62150;43.582;1.456;2023-02-08T12:38:27;8.87;;;3.27;;
17496;SDS011;62150;43.582;1.456;2023-02-08T12:41:40;8.97;;;2.97;;
17496;SDS011;62150;43.582;1.456;2023-02-08T12:44:16;8.33;;;3.27;;
17496;SDS011;62150;43.582;1.456;2023-02-08T12:46:55;7.43;;;3.23;;
17496;SDS011;62150;43.582;1.456;2023-02-08T12:49:33;8.37;;;3.27;;
17496;SDS011;62150;43.582;1.456;2023-02-08T12:52:24;7.80;;;3.07;;
17496;SDS011;62150;43.582;1.456;2023-02-08T12:54:59;8.80;;;3.37;;
17496;SDS011;62150;43.582;1.456;2023-02-08T12:57:34;7.73;;;3.03;;
17496;SDS011;62150;43.582;1.456;2023-02-08T13:00:05;9.30;;;3.20;;
17496;SDS011;62150;43.582;1.456;2023-02-08T13:02:43;10.57;;;3.87;;
17496;SDS011;62150;43.582;1.456;2023-02-08T13:05:21;9.17;;;3.40;;
17496;SDS011;62150;43.582;1.456;2023-02-08T13:07:54;6.53;;;2.90;;
17496;SDS011;62150;43.582;1.456;2023-02-08T13:10:28;6.70;;;3.03;;
17496;SDS011;62150;43.582;1.456;2023-02-08T13:13:00;8.07;;;3.23;;
17496;SDS011;62150;43.582;1.456;2023-02-08T13:15:37;7.13;;;3.00;;
17496;SDS011;62150;43.582;1.456;2023-02-08T13:18:10;8.90;;;3.20;;
17496;SDS011;62150;43.582;1.456;2023-02-08T13:20:44;9.17;;;3.20;;
17496;SDS011;62150;43.582;1.456;2023-02-08T13:23:18;8.87;;;3.40;;
17496;SDS011;62150;43.582;1.456;2023-02-08T13:25:50;7.63;;;3.30;;
17496;SDS011;62150;43.582;1.456;2023-02-08T13:28:20;9.50;;;3.40;;
17496;SDS011;62150;43.582;1.456;2023-02-08T13:30:55;9.90;;;3.30;;
17496;SDS011;62150;43.582;1.456;2023-02-08T13:33:30;9.80;;;3.30;;
17496;SDS011;62150;43.582;1.456;2023-02-08T13:36:04;8.53;;;3.10;;
17496;SDS011;62150;43.582;1.456;2023-02-08T13:38:45;8.60;;;3.20;;
17496;SDS011;62150;43.582;1.456;2023-02-08T13:41:14;8.93;;;3.03;;
17496;SDS011;62150;43.582;1.456;2023-02-08T13:43:45;7.30;;;2.90;;
17496;SDS011;62150;43.582;1.456;2023-02-08T13:46:19;8.40;;;3.17;;
17496;SDS011;62150;43.582;1.456;2023-02-08T13:48:50;7.47;;;3.10;;
17496;SDS011;62150;43.582;1.456;2023-02-08T13:54:22;8.43;;;2.97;;
17496;SDS011;62150;43.582;1.456;2023-02-08T13:56:50;5.40;;;2.80;;
17496;SDS011;62150;43.582;1.456;2023-02-08T14:02:17;8.03;;;3.10;;
17496;SDS011;62150;43.582;1.456;2023-02-08T14:07:55;7.37;;;3.07;;
17496;SDS011;62150;43.582;1.456;2023-02-08T14:10:27;7.13;;;3.20;;
17496;SDS011;62150;43.582;1.456;2023-02-08T14:13:02;7.90;;;3.23;;
17496;SDS011;62150;43.582;1.456;2023-02-08T14:15:41;8.60;;;3.30;;
17496;SDS011;62150;43.582;1.456;2023-02-08T14:18:20;6.13;;;3.13;;
17496;SDS011;62150;43.582;1.456;2023-02-08T14:20:56;8.07;;;3.00;;
17496;SDS011;62150;43.582;1.456;2023-02-08T14:23:29;8.07;;;3.10;;
17496;SDS011;62150;43.582;1.456;2023-02-08T14:26:01;7.67;;;3.00;;
17496;SDS011;62150;43.582;1.456;2023-02-08T14:28:33;9.70;;;3.43;;
17496;SDS011;62150;43.582;1.456;2023-02-08T14:31:05;9.03;;;3.30;;
17496;SDS011;62150;43.582;1.456;2023-02-08T14:33:37;10.17;;;3.20;;
17496;SDS011;62150;43.582;1.456;2023-02-08T14:36:15;6.33;;;2.80;;
17496;SDS011;62150;43.582;1.456;2023-02-08T14:38:52;9.27;;;3.40;;
17496;SDS011;62150;43.582;1.456;2023-02-08T14:41:45;9.20;;;3.03;;
17496;SDS011;62150;43.582;1.456;2023-02-08T14:50:41;7.97;;;3.10;;
17496;SDS011;62150;43.582;1.456;2023-02-08T14:53:24;9.57;;;3.10;;
17496;SDS011;62150;43.582;1.456;2023-02-08T14:55:58;7.80;;;3.10;;
17496;SDS011;62150;43.582;1.456;2023-02-08T14:58:31;8.60;;;3.23;;
17496;SDS011;62150;43.582;1.456;2023-02-08T15:01:03;6.27;;;2.90;;
17496;SDS011;62150;43.582;1.456;2023-02-08T15:03:37;7.43;;;2.80;;
17496;SDS011;62150;43.582;1.456;2023-02-08T15:06:15;9.23;;;3.10;;
17496;SDS011;62150;43.582;1.456;2023-02-08T15:09:11;7.97;;;2.77;;
17496;SDS011;62150;43.582;1.456;2023-02-08T15:11:41;6.23;;;2.50;;
17496;SDS011;62150;43.582;1.456;2023-02-08T15:14:18;7.37;;;2.60;;
17496;SDS011;62150;43.582;1.456;2023-02-08T15:16:46;7.33;;;2.60;;
17496;SDS011;62150;43.582;1.456;2023-02-08T15:19:19;9.43;;;2.93;;
17496;SDS011;62150;43.582;1.456;2023-02-08T15:21:51;7.20;;;2.80;;
17496;SDS011;62150;43.582;1.456;2023-02-08T15:24:20;8.43;;;2.80;;
17496;SDS011;62150;43.582;1.456;2023-02-08T15:26:53;8.97;;;3.10;;
17496;SDS011;62150;43.582;1.456;2023-02-08T15:29:23;8.30;;;2.97;;
17496;SDS011;62150;43.582;1.456;2023-02-08T15:31:52;7.60;;;2.83;;
17496;SDS011;62150;43.582;1.456;2023-02-08T15:34:22;8.77;;;2.87;;
17496;SDS011;62150;43.582;1.456;2023-02-08T15:36:53;8.30;;;2.90;;
17496;SDS011;62150;43.582;1.456;2023-02-08T15:39:23;5.50;;;2.70;;
17496;SDS011;62150;43.582;1.456;2023-02-08T15:41:57;8.30;;;3.10;;
17496;SDS011;62150;43.582;1.456;2023-02-08T15:44:26;7.80;;;2.80;;
17496;SDS011;62150;43.582;1.456;2023-02-08T15:46:55;8.90;;;3.30;;
17496;SDS011;62150;43.582;1.456;2023-02-08T15:49:27;8.73;;;3.23;;
17496;SDS011;62150;43.582;1.456;2023-02-08T15:51:58;8.80;;;3.70;;
17496;SDS011;62150;43.582;1.456;2023-02-08T15:54:30;9.03;;;3.43;;
17496;SDS011;62150;43.582;1.456;2023-02-08T15:56:59;8.87;;;3.27;;
17496;SDS011;62150;43.582;1.456;2023-02-08T15:59:31;6.03;;;3.00;;
17496;SDS011;62150;43.582;1.456;2023-02-08T16:02:03;8.70;;;3.10;;
17496;SDS011;62150;43.582;1.456;2023-02-08T16:04:43;7.83;;;3.10;;
17496;SDS011;62150;43.582;1.456;2023-02-08T16:07:20;7.47;;;2.90;;
17496;SDS011;62150;43.582;1.456;2023-02-08T16:09:50;7.47;;;3.07;;
17496;SDS011;62150;43.582;1.456;2023-02-08T16:12:19;7.80;;;3.00;;
17496;SDS011;62150;43.582;1.456;2023-02-08T16:14:48;7.97;;;2.60;;
17496;SDS011;62150;43.582;1.456;2023-02-08T16:17:36;7.40;;;2.90;;
17496;SDS011;62150;43.582;1.456;2023-02-08T16:20:20;8.20;;;2.80;;
17496;SDS011;62150;43.582;1.456;2023-02-08T16:22:55;7.63;;;2.73;;
17496;SDS011;62150;43.582;1.456;2023-02-08T16:25:31;8.93;;;2.60;;
17496;SDS011;62150;43.582;1.456;2023-02-08T16:28:02;11.47;;;3.20;;
17496;SDS011;62150;43.582;1.456;2023-02-08T16:30:31;8.60;;;2.97;;
17496;SDS011;62150;43.582;1.456;2023-02-08T16:33:04;7.87;;;2.90;;
17496;SDS011;62150;43.582;1.456;2023-02-08T16:35:33;6.53;;;2.83;;
17496;SDS011;62150;43.582;1.456;2023-02-08T16:38:06;7.57;;;3.07;;
17496;SDS011;62150;43.582;1.456;2023-02-08T16:40:43;9.43;;;2.93;;
17496;SDS011;62150;43.582;1.456;2023-02-08T16:43:17;8.63;;;3.00;;
17496;SDS011;62150;43.582;1.456;2023-02-08T16:48:51;7.73;;;2.70;;
17496;SDS011;62150;43.582;1.456;2023-02-08T16:51:21;8.50;;;3.00;;
17496;SDS011;62150;43.582;1.456;2023-02-08T16:53:53;8.93;;;2.80;;
17496;SDS011;62150;43.582;1.456;2023-02-08T16:56:26;7.53;;;2.90;;
17496;SDS011;62150;43.582;1.456;2023-02-08T16:58:54;6.77;;;3.00;;
17496;SDS011;62150;43.582;1.456;2023-02-08T17:01:21;7.40;;;3.03;;
17496;SDS011;62150;43.582;1.456;2023-02-08T17:03:49;8.10;;;3.10;;
17496;SDS011;62150;43.582;1.456;2023-02-08T17:06:22;8.03;;;3.20;;
17496;SDS011;62150;43.582;1.456;2023-02-08T17:08:55;9.50;;;3.63;;
17496;SDS011;62150;43.582;1.456;2023-02-08T17:11:23;11.63;;;4.87;;
17496;SDS011;62150;43.582;1.456;2023-02-08T17:13:51;11.10;;;4.33;;
17496;SDS011;62150;43.582;1.456;2023-02-08T17:16:19;11.17;;;4.03;;
17496;SDS011;62150;43.582;1.456;2023-02-08T17:18:48;8.37;;;3.63;;
17496;SDS011;62150;43.582;1.456;2023-02-08T17:21:17;8.27;;;3.60;;
17496;SDS011;62150;43.582;1.456;2023-02-08T17:23:45;9.47;;;3.60;;
17496;SDS011;62150;43.582;1.456;2023-02-08T17:26:14;8.60;;;3.43;;
17496;SDS011;62150;43.582;1.456;2023-02-08T17:28:46;8.13;;;3.40;;
17496;SDS011;62150;43.582;1.456;2023-02-08T17:31:15;8.07;;;3.20;;
17496;SDS011;62150;43.582;1.456;2023-02-08T17:33:43;10.50;;;3.67;;
17496;SDS011;62150;43.582;1.456;2023-02-08T17:36:11;7.97;;;2.90;;
17496;SDS011;62150;43.582;1.456;2023-02-08T17:38:40;7.77;;;3.40;;
17496;SDS011;62150;43.582;1.456;2023-02-08T17:41:10;9.87;;;3.37;;
17496;SDS011;62150;43.582;1.456;2023-02-08T17:43:41;7.47;;;3.10;;
17496;SDS011;62150;43.582;1.456;2023-02-08T17:46:09;10.37;;;3.53;;
17496;SDS011;62150;43.582;1.456;2023-02-08T17:48:37;8.53;;;3.77;;
17496;SDS011;62150;43.582;1.456;2023-02-08T17:51:08;9.57;;;3.53;;
17496;SDS011;62150;43.582;1.456;2023-02-08T17:53:36;9.07;;;3.40;;
17496;SDS011;62150;43.582;1.456;2023-02-08T17:56:06;9.93;;;3.50;;
17496;SDS011;62150;43.582;1.456;2023-02-08T17:58:38;10.40;;;4.07;;
17496;SDS011;62150;43.582;1.456;2023-02-08T18:01:07;10.27;;;4.23;;
17496;SDS011;62150;43.582;1.456;2023-02-08T18:03:35;8.77;;;4.37;;
17496;SDS011;62150;43.582;1.456;2023-02-08T18:06:05;8.07;;;3.77;;
17496;SDS011;62150;43.582;1.456;2023-02-08T18:08:33;8.27;;;3.63;;
17496;SDS011;62150;43.582;1.456;2023-02-08T18:11:04;9.57;;;3.77;;
17496;SDS011;62150;43.582;1.456;2023-02-08T18:13:33;8.63;;;4.10;;
17496;SDS011;62150;43.582;1.456;2023-02-08T18:16:06;11.23;;;4.70;;
17496;SDS011;62150;43.582;1.456;2023-02-08T18:18:35;11.73;;;5.07;;
17496;SDS011;62150;43.582;1.456;2023-02-08T18:21:07;11.37;;;4.87;;
17496;SDS011;62150;43.582;1.456;2023-02-08T18:23:36;11.13;;;4.70;;
17496;SDS011;62150;43.582;1.456;2023-02-08T18:26:05;12.60;;;4.33;;
17496;SDS011;62150;43.582;1.456;2023-02-08T18:28:36;9.43;;;3.83;;
17496;SDS011;62150;43.582;1.456;2023-02-08T18:31:05;10.70;;;4.67;;
17496;SDS011;62150;43.582;1.456;2023-02-08T18:33:36;9.07;;;4.37;;
17496;SDS011;62150;43.582;1.456;2023-02-08T18:36:04;8.80;;;4.30;;
17496;SDS011;62150;43.582;1.456;2023-02-08T18:38:35;10.03;;;4.70;;
17496;SDS011;62150;43.582;1.456;2023-02-08T18:41:05;8.53;;;4.47;;
17496;SDS011;62150;43.582;1.456;2023-02-08T18:43:34;8.50;;;4.17;;
17496;SDS011;62150;43.582;1.456;2023-02-08T18:46:03;10.63;;;4.30;;
17496;SDS011;62150;43.582;1.456;2023-02-08T18:48:35;8.73;;;4.00;;
17496;SDS011;62150;43.582;1.456;2023-02-08T18:51:04;8.37;;;4.00;;
17496;SDS011;62150;43.582;1.456;2023-02-08T18:53:34;8.10;;;3.90;;
17496;SDS011;62150;43.582;1.456;2023-02-08T18:56:04;8.90;;;4.13;;
17496;SDS011;62150;43.582;1.456;2023-02-08T18:58:33;9.23;;;4.03;;
17496;SDS011;62150;43.582;1.456;2023-02-08T19:01:05;9.43;;;4.10;;
17496;SDS011;62150;43.582;1.456;2023-02-08T19:03:32;10.83;;;4.60;;
17496;SDS011;62150;43.582;1.456;2023-02-08T19:06:03;10.93;;;4.30;;
17496;SDS011;62150;43.582;1.456;2023-02-08T19:08:31;9.17;;;3.73;;
17496;SDS011;62150;43.582;1.456;2023-02-08T19:11:01;8.67;;;3.70;;
17496;SDS011;62150;43.582;1.456;2023-02-08T19:13:30;11.03;;;3.33;;
17496;SDS011;62150;43.582;1.456;2023-02-08T19:15:59;8.33;;;3.50;;
17496;SDS011;62150;43.582;1.456;2023-02-08T19:18:27;7.07;;;3.37;;
17496;SDS011;62150;43.582;1.456;2023-02-08T19:21:00;9.70;;;3.60;;
17496;SDS011;62150;43.582;1.456;2023-02-08T19:23:28;8.30;;;3.60;;
17496;SDS011;62150;43.582;1.456;2023-02-08T19:25:56;7.93;;;3.50;;
17496;SDS011;62150;43.582;1.456;2023-02-08T19:28:27;9.53;;;4.00;;
17496;SDS011;62150;43.582;1.456;2023-02-08T19:31:03;10.77;;;4.30;;
17496;SDS011;62150;43.582;1.456;2023-02-08T19:33:33;9.87;;;4.07;;
17496;SDS011;62150;43.582;1.456;2023-02-08T19:36:06;11.23;;;4.50;;
17496;SDS011;62150;43.582;1.456;2023-02-08T19:38:34;11.13;;;5.00;;
17496;SDS011;62150;43.582;1.456;2023-02-08T19:41:02;10.67;;;4.80;;
17496;SDS011;62150;43.582;1.456;2023-02-08T19:43:31;11.07;;;4.80;;
17496;SDS011;62150;43.582;1.456;2023-02-08T19:45:58;9.53;;;4.30;;
17496;SDS011;62150;43.582;1.456;2023-02-08T19:48:26;11.50;;;5.07;;
17496;SDS011;62150;43.582;1.456;2023-02-08T19:50:54;12.17;;;5.20;;
17496;SDS011;62150;43.582;1.456;2023-02-08T19:53:24;11.73;;;5.20;;
17496;SDS011;62150;43.582;1.456;2023-02-08T19:55:53;11.47;;;5.33;;
17496;SDS011;62150;43.582;1.456;2023-02-08T19:58:21;12.03;;;5.57;;
17496;SDS011;62150;43.582;1.456;2023-02-08T20:00:49;14.07;;;6.17;;
17496;SDS011;62150;43.582;1.456;2023-02-08T20:03:17;11.10;;;5.00;;
17496;SDS011;62150;43.582;1.456;2023-02-08T20:05:46;11.40;;;5.63;;
17496;SDS011;62150;43.582;1.456;2023-02-08T20:08:14;11.40;;;5.40;;
17496;SDS011;62150;43.582;1.456;2023-02-08T20:10:44;13.90;;;5.37;;
17496;SDS011;62150;43.582;1.456;2023-02-08T20:13:13;11.10;;;4.70;;
17496;SDS011;62150;43.582;1.456;2023-02-08T20:15:41;11.60;;;5.07;;
17496;SDS011;62150;43.582;1.456;2023-02-08T20:18:11;12.00;;;5.37;;
17496;SDS011;62150;43.582;1.456;2023-02-08T20:20:40;12.33;;;5.17;;
17496;SDS011;62150;43.582;1.456;2023-02-08T20:23:09;11.63;;;5.10;;
17496;SDS011;62150;43.582;1.456;2023-02-08T20:25:39;13.17;;;5.27;;
17496;SDS011;62150;43.582;1.456;2023-02-08T20:28:08;9.53;;;4.57;;
17496;SDS011;62150;43.582;1.456;2023-02-08T20:30:35;11.13;;;5.33;;
17496;SDS011;62150;43.582;1.456;2023-02-08T20:33:06;10.80;;;4.87;;
17496;SDS011;62150;43.582;1.456;2023-02-08T20:35:34;11.37;;;4.83;;
17496;SDS011;62150;43.582;1.456;2023-02-08T20:38:01;12.13;;;4.70;;
17496;SDS011;62150;43.582;1.456;2023-02-08T20:40:29;12.63;;;4.90;;
17496;SDS011;62150;43.582;1.456;2023-02-08T20:42:56;11.47;;;5.00;;
17496;SDS011;62150;43.582;1.456;2023-02-08T20:45:25;11.40;;;5.27;;
17496;SDS011;62150;43.582;1.456;2023-02-08T20:47:54;11.23;;;5.07;;
17496;SDS011;62150;43.582;1.456;2023-02-08T20:50:21;11.63;;;5.13;;
17496;SDS011;62150;43.582;1.456;2023-02-08T20:52:49;13.77;;;6.03;;
17496;SDS011;62150;43.582;1.456;2023-02-08T20:55:17;14.43;;;6.63;;
17496;SDS011;62150;43.582;1.456;2023-02-08T20:57:45;15.53;;;6.83;;
17496;SDS011;62150;43.582;1.456;2023-02-08T21:00:13;16.10;;;7.47;;
17496;SDS011;62150;43.582;1.456;2023-02-08T21:02:42;15.37;;;7.40;;
17496;SDS011;62150;43.582;1.456;2023-02-08T21:05:09;15.87;;;7.50;;
17496;SDS011;62150;43.582;1.456;2023-02-08T21:07:37;15.73;;;7.30;;
17496;SDS011;62150;43.582;1.456;2023-02-08T21:10:05;17.63;;;8.03;;
17496;SDS011;62150;43.582;1.456;2023-02-08T21:12:33;14.40;;;8.17;;
17496;SDS011;62150;43.582;1.456;2023-02-08T21:15:01;15.67;;;8.73;;
17496;SDS011;62150;43.582;1.456;2023-02-08T21:17:29;17.73;;;8.40;;